Time;durP1;ratioP1;P1;durP2;ratioP2;P2;SDS_P1;SDS_P2;PMS_P1;PMS_P2;Temp;Humidity;BMP_temperature;BMP_pressure;BME280_temperature;BME280_humidity;BME280_pressure;Samples;Min_cycle;Max_cycle;Signal;HPM_P1;HPM_P2
2022/07/06 00:02:13;;;;;;;;;;;15.40;98.40;;;;;;5071122;28;19954;-74
2022/07/06 00:04:39;;;;;;;;;;;15.40;98.30;;;;;;5070840;28;20386;-74
2022/07/06 00:07:04;;;;;;;;;;;15.40;98.60;;;;;;5071651;28;19909;-74
2022/07/06 00:09:30;;;;;;;;;;;15.40;98.10;;;;;;5071596;28;20112;-76
2022/07/06 00:11:55;;;;;;;;;;;15.60;97.60;;;;;;5070709;28;20407;-74
2022/07/06 00:14:21;;;;;;;;;;;15.40;98.00;;;;;;5069632;28;19919;-74
2022/07/06 00:16:46;;;;;;;;;;;15.40;98.10;;;;;;5071418;28;19913;-74
2022/07/06 00:19:12;;;;;;;;;;;15.30;98.60;;;;;;5071150;28;19913;-78
2022/07/06 00:21:38;;;;;;;;;;;15.30;98.30;;;;;;5069668;28;19913;-74
2022/07/06 00:24:03;;;;;;;;;;;15.60;98.00;;;;;;5070491;28;19927;-74
2022/07/06 00:26:29;;;;;;;;;;;15.80;97.00;;;;;;5082602;28;20393;-74
2022/07/06 00:28:54;;;;;;;;;;;15.50;98.10;;;;;;5069879;28;19913;-75
2022/07/06 00:31:20;;;;;;;;;;;15.50;97.60;;;;;;5069713;28;19917;-74
2022/07/06 00:33:45;;;;;;;;;;;15.40;97.60;;;;;;5070479;28;19999;-74
2022/07/06 00:36:11;;;;;;;;;;;15.60;97.60;;;;;;5071264;28;20418;-74
2022/07/06 00:38:36;;;;;;;;;;;15.60;97.20;;;;;;5071193;28;19909;-78
2022/07/06 00:41:02;;;;;;;;;;;15.30;98.00;;;;;;5071157;28;19915;-74
2022/07/06 00:43:27;;;;;;;;;;;15.30;98.10;;;;;;5068701;28;19908;-74
2022/07/06 00:45:53;;;;;;;;;;;15.10;98.00;;;;;;5071001;28;20058;-75
2022/07/06 00:48:18;;;;;;;;;;;15.40;97.70;;;;;;5071172;28;19916;-74
2022/07/06 00:50:44;;;;;;;;;;;15.20;98.00;;;;;;5071439;28;20539;-74
2022/07/06 00:53:09;;;;;;;;;;;15.10;98.30;;;;;;5068423;28;19909;-74
2022/07/06 00:55:36;;;;;;;;;;;15.20;98.20;;;;;;5069979;28;20435;-77
2022/07/06 00:58:03;;;;;;;;;;;15.30;97.80;;;;;;5062118;28;19908;-74
2022/07/06 01:00:28;;;;;;;;;;;15.30;98.20;;;;;;5070762;28;19909;-74
2022/07/06 01:02:54;;;;;;;;;;;15.30;97.80;;;;;;5069799;28;19976;-74
2022/07/06 01:05:20;;;;;;;;;;;15.20;97.70;;;;;;5072398;28;19913;-75
2022/07/06 01:07:46;;;;;;;;;;;15.30;97.10;;;;;;5069948;28;19962;-78
2022/07/06 01:10:12;;;;;;;;;;;15.10;97.80;;;;;;5072629;28;20429;-75
2022/07/06 01:12:39;;;;;;;;;;;15.20;97.30;;;;;;5069918;28;20351;-74
2022/07/06 01:15:05;;;;;;;;;;;15.10;97.70;;;;;;5071560;28;19908;-74
2022/07/06 01:17:32;;;;;;;;;;;15.10;97.90;;;;;;5071944;28;20316;-74
2022/07/06 01:19:57;;;;;;;;;;;15.30;97.10;;;;;;5072205;28;19920;-76
2022/07/06 01:22:23;;;;;;;;;;;15.00;98.10;;;;;;5071832;28;20078;-74
2022/07/06 01:24:48;;;;;;;;;;;15.00;97.70;;;;;;5072521;28;19916;-74
2022/07/06 01:27:14;;;;;;;;;;;15.10;97.10;;;;;;5074336;28;20381;-75
2022/07/06 01:29:39;;;;;;;;;;;14.90;98.10;;;;;;5074319;28;20369;-74
2022/07/06 01:32:05;;;;;;;;;;;14.70;98.30;;;;;;5073767;28;19912;-74
2022/07/06 01:34:30;;;;;;;;;;;14.70;98.30;;;;;;5073674;28;19962;-74
2022/07/06 01:36:56;;;;;;;;;;;15.10;97.40;;;;;;5074881;28;19909;-77
2022/07/06 01:39:21;;;;;;;;;;;15.10;97.40;;;;;;5081565;28;20355;-74
2022/07/06 01:41:47;;;;;;;;;;;15.10;97.20;;;;;;5073841;28;19915;-73
2022/07/06 01:44:13;;;;;;;;;;;14.90;97.30;;;;;;5073263;28;19921;-74
2022/07/06 01:46:38;;;;;;;;;;;14.90;97.20;;;;;;5074000;28;19912;-78
2022/07/06 01:49:04;;;;;;;;;;;14.80;98.10;;;;;;5074048;28;19929;-74
2022/07/06 01:51:30;;;;;;;;;;;14.60;98.00;;;;;;5072434;28;19908;-78
2022/07/06 01:53:56;;;;;;;;;;;14.40;99.00;;;;;;5073097;28;20566;-74
2022/07/06 01:56:21;;;;;;;;;;;14.50;98.60;;;;;;5072659;28;19909;-73
2022/07/06 01:58:47;;;;;;;;;;;14.50;98.70;;;;;;5072662;28;19908;-75
2022/07/06 02:01:14;;;;;;;;;;;14.30;98.70;;;;;;5073633;28;19913;-77
2022/07/06 02:03:40;;;;;;;;;;;14.10;99.70;;;;;;5066582;28;20381;-74
2022/07/06 02:06:06;;;;;;;;;;;14.40;98.70;;;;;;5073815;28;19919;-73
2022/07/06 02:08:32;;;;;;;;;;;14.20;98.80;;;;;;5074552;28;20369;-73
2022/07/06 02:10:58;;;;;;;;;;;14.20;99.20;;;;;;5080541;28;19908;-73
2022/07/06 02:13:24;;;;;;;;;;;14.50;98.90;;;;;;5072417;28;20376;-73
2022/07/06 02:15:49;;;;;;;;;;;14.30;99.30;;;;;;5072750;28;19915;-74
2022/07/06 02:18:15;;;;;;;;;;;14.00;99.90;;;;;;5073473;28;19912;-73
2022/07/06 02:20:40;;;;;;;;;;;13.80;99.90;;;;;;5073456;28;19919;-74
2022/07/06 02:23:06;;;;;;;;;;;13.80;99.90;;;;;;5070651;28;19918;-74
2022/07/06 02:25:31;;;;;;;;;;;13.50;99.90;;;;;;5073444;28;19912;-76
2022/07/06 02:27:56;;;;;;;;;;;13.70;99.90;;;;;;5073539;28;19908;-74
2022/07/06 02:30:22;;;;;;;;;;;13.90;99.90;;;;;;5073105;28;20276;-74
2022/07/06 02:32:47;;;;;;;;;;;14.20;99.90;;;;;;5072785;28;19962;-74
2022/07/06 02:35:13;;;;;;;;;;;14.20;99.90;;;;;;5072588;28;19912;-78
2022/07/06 02:37:39;;;;;;;;;;;14.10;99.90;;;;;;5071329;28;20149;-74
2022/07/06 02:40:04;;;;;;;;;;;14.20;99.90;;;;;;5081535;28;19909;-74
2022/07/06 02:42:30;;;;;;;;;;;14.20;99.90;;;;;;5072729;28;19995;-74
2022/07/06 02:44:55;;;;;;;;;;;14.60;99.70;;;;;;5072134;28;20473;-77
2022/07/06 02:47:21;;;;;;;;;;;14.50;99.80;;;;;;5072775;28;19962;-74
2022/07/06 02:49:46;;;;;;;;;;;14.30;99.90;;;;;;5072924;28;19915;-74
2022/07/06 02:52:12;;;;;;;;;;;14.10;99.90;;;;;;5072238;28;19951;-75
2022/07/06 02:54:37;;;;;;;;;;;14.10;99.90;;;;;;5072239;28;19962;-74
2022/07/06 02:57:03;;;;;;;;;;;14.00;99.90;;;;;;5072674;28;19991;-74
2022/07/06 02:59:28;;;;;;;;;;;14.20;99.90;;;;;;5072445;28;20349;-74
2022/07/06 03:01:54;;;;;;;;;;;14.00;99.90;;;;;;5072197;28;19909;-76
2022/07/06 03:04:19;;;;;;;;;;;13.80;99.90;;;;;;5071824;28;20014;-74
2022/07/06 03:06:45;;;;;;;;;;;13.80;99.90;;;;;;5072427;28;20384;-74
2022/07/06 03:09:10;;;;;;;;;;;13.80;99.90;;;;;;5072678;28;19998;-75
2022/07/06 03:11:36;;;;;;;;;;;13.70;99.90;;;;;;5072010;28;19952;-78
2022/07/06 03:14:02;;;;;;;;;;;13.70;99.90;;;;;;5071573;28;20361;-74
2022/07/06 03:16:28;;;;;;;;;;;13.70;99.90;;;;;;5072204;28;19917;-74
2022/07/06 03:18:54;;;;;;;;;;;13.90;99.90;;;;;;5072286;28;20011;-74
2022/07/06 03:21:19;;;;;;;;;;;13.80;99.90;;;;;;5071649;28;19995;-74
2022/07/06 03:23:45;;;;;;;;;;;13.60;99.90;;;;;;5071361;28;19970;-74
2022/07/06 03:26:10;;;;;;;;;;;13.80;99.90;;;;;;5071988;28;19923;-75
2022/07/06 03:28:36;;;;;;;;;;;13.70;99.90;;;;;;5071038;28;19940;-78
2022/07/06 03:31:01;;;;;;;;;;;13.80;99.90;;;;;;5072022;28;19962;-74
2022/07/06 03:33:27;;;;;;;;;;;13.80;99.90;;;;;;5070876;28;20277;-78
2022/07/06 03:35:52;;;;;;;;;;;13.70;99.90;;;;;;5069803;28;19909;-74
2022/07/06 03:38:18;;;;;;;;;;;13.60;99.90;;;;;;5075123;28;19908;-74
2022/07/06 03:40:43;;;;;;;;;;;13.50;99.90;;;;;;5074548;28;19915;-74
2022/07/06 03:43:09;;;;;;;;;;;13.40;99.90;;;;;;5069420;28;20377;-77
2022/07/06 03:45:34;;;;;;;;;;;13.40;99.90;;;;;;5070420;28;19999;-74
2022/07/06 03:48:00;;;;;;;;;;;13.40;99.90;;;;;;5071556;28;19909;-74
2022/07/06 03:50:25;;;;;;;;;;;13.40;99.90;;;;;;5071496;28;19912;-76
2022/07/06 03:52:51;;;;;;;;;;;13.20;99.90;;;;;;5071058;28;20357;-74
2022/07/06 03:55:16;;;;;;;;;;;13.20;99.90;;;;;;5071095;28;19908;-74
2022/07/06 03:57:42;;;;;;;;;;;13.30;99.90;;;;;;5071568;28;19915;-74
2022/07/06 04:00:08;;;;;;;;;;;13.20;99.90;;;;;;5071266;28;19909;-77
2022/07/06 04:02:33;;;;;;;;;;;13.20;99.90;;;;;;5071144;28;19954;-75
2022/07/06 04:04:59;;;;;;;;;;;13.20;99.90;;;;;;5070769;28;19912;-74
2022/07/06 04:07:25;;;;;;;;;;;13.20;99.90;;;;;;5074849;28;19954;-74
2022/07/06 04:09:50;;;;;;;;;;;13.30;99.90;;;;;;5078905;28;19916;-74
2022/07/06 04:12:16;;;;;;;;;;;13.30;99.90;;;;;;5070802;28;19915;-78
2022/07/06 04:14:42;;;;;;;;;;;13.40;99.90;;;;;;5071238;28;20350;-77
2022/07/06 04:19:51;;;;;;;;;;;13.50;99.90;;;;;;5060385;28;19923;-76
2022/07/06 04:22:17;;;;;;;;;;;13.60;99.90;;;;;;5070531;28;19908;-74
2022/07/06 04:24:42;;;;;;;;;;;13.80;99.90;;;;;;5070275;28;20335;-74
2022/07/06 04:27:08;;;;;;;;;;;13.80;99.90;;;;;;5070866;28;19915;-78
2022/07/06 04:29:33;;;;;;;;;;;13.80;99.90;;;;;;5070855;28;19909;-74
2022/07/06 04:31:59;;;;;;;;;;;13.80;99.90;;;;;;5070620;28;19908;-74
2022/07/06 04:34:24;;;;;;;;;;;13.80;99.90;;;;;;5070591;28;19916;-75
2022/07/06 04:36:50;;;;;;;;;;;13.90;99.90;;;;;;5071138;28;20013;-77
2022/07/06 04:39:15;;;;;;;;;;;13.90;99.90;;;;;;5081554;28;19918;-74
2022/07/06 04:41:41;;;;;;;;;;;13.90;99.90;;;;;;5090789;28;19912;-74
2022/07/06 04:44:06;;;;;;;;;;;14.00;99.90;;;;;;5077192;28;19908;-77
2022/07/06 04:46:32;;;;;;;;;;;13.90;99.90;;;;;;5077714;28;19909;-74
2022/07/06 04:48:57;;;;;;;;;;;14.00;99.90;;;;;;5076423;28;20007;-74
2022/07/06 04:51:23;;;;;;;;;;;14.00;99.90;;;;;;5077069;28;20288;-74
2022/07/06 04:53:48;;;;;;;;;;;14.00;99.90;;;;;;5076834;28;20278;-74
2022/07/06 04:56:14;;;;;;;;;;;14.10;99.90;;;;;;5077541;28;19996;-74
2022/07/06 04:58:39;;;;;;;;;;;14.10;99.90;;;;;;5073146;28;19908;-75
2022/07/06 05:01:05;;;;;;;;;;;14.20;99.90;;;;;;5085638;28;19908;-76
2022/07/06 05:03:30;;;;;;;;;;;14.20;99.90;;;;;;5076356;28;19913;-75
2022/07/06 05:05:56;;;;;;;;;;;14.20;99.90;;;;;;5077443;28;20400;-75
2022/07/06 05:08:21;;;;;;;;;;;14.20;99.90;;;;;;5071081;28;19978;-75
2022/07/06 05:10:48;;;;;;;;;;;14.30;99.90;;;;;;5077603;28;20365;-78
2022/07/06 05:13:13;;;;;;;;;;;14.30;99.90;;;;;;5076047;28;19909;-75
2022/07/06 05:15:39;;;;;;;;;;;14.30;99.90;;;;;;5076218;28;19908;-75
2022/07/06 05:18:04;;;;;;;;;;;14.40;99.90;;;;;;5071159;28;19908;-75
2022/07/06 05:20:30;;;;;;;;;;;14.50;99.90;;;;;;5072014;28;19955;-75
2022/07/06 05:22:55;;;;;;;;;;;14.50;99.90;;;;;;5075322;28;20072;-77
2022/07/06 05:25:21;;;;;;;;;;;14.60;99.90;;;;;;5076736;28;19917;-74
2022/07/06 05:27:46;;;;;;;;;;;14.70;99.90;;;;;;5076144;28;20347;-75
2022/07/06 05:30:12;;;;;;;;;;;14.70;99.90;;;;;;5076935;28;19908;-75
2022/07/06 05:32:38;;;;;;;;;;;14.80;99.90;;;;;;5076861;28;19909;-78
2022/07/06 05:35:03;;;;;;;;;;;14.90;99.90;;;;;;5076695;28;19908;-75
2022/07/06 05:37:29;;;;;;;;;;;14.90;99.90;;;;;;5077091;28;20285;-75
2022/07/06 05:39:54;;;;;;;;;;;14.90;99.90;;;;;;5077032;28;20361;-75
2022/07/06 05:42:20;;;;;;;;;;;15.00;99.90;;;;;;5076680;28;19915;-77
2022/07/06 05:44:45;;;;;;;;;;;15.00;99.90;;;;;;5076639;28;19913;-75
2022/07/06 05:50:14;;;;;;;;;;;15.30;99.90;;;;;;5056674;28;19916;-75
2022/07/06 05:52:40;;;;;;;;;;;15.40;99.90;;;;;;5057829;28;19909;-75
2022/07/06 05:55:06;;;;;;;;;;;15.60;99.90;;;;;;5071731;28;19912;-79
2022/07/06 05:57:32;;;;;;;;;;;16.70;99.90;;;;;;5073919;28;20012;-75
2022/07/06 05:59:57;;;;;;;;;;;17.30;99.90;;;;;;5073509;28;20018;-74
2022/07/06 06:02:23;;;;;;;;;;;16.80;99.90;;;;;;5072170;28;19951;-75
2022/07/06 06:04:48;;;;;;;;;;;17.80;99.90;;;;;;5073367;28;20365;-79
2022/07/06 06:07:14;;;;;;;;;;;18.60;99.90;;;;;;5073882;28;20270;-75
2022/07/06 06:09:39;;;;;;;;;;;18.80;99.90;;;;;;5073592;28;19952;-75
2022/07/06 06:12:05;;;;;;;;;;;18.80;99.20;;;;;;5073334;28;19909;-76
2022/07/06 06:14:30;;;;;;;;;;;18.40;99.90;;;;;;5073011;28;19946;-79
2022/07/06 06:16:56;;;;;;;;;;;17.40;99.90;;;;;;5073765;28;20365;-75
2022/07/06 06:19:21;;;;;;;;;;;17.60;99.90;;;;;;5073316;28;19909;-75
2022/07/06 06:21:47;;;;;;;;;;;18.10;99.90;;;;;;5071658;28;19909;-75
2022/07/06 06:24:13;;;;;;;;;;;18.20;99.40;;;;;;5073115;28;20293;-77
2022/07/06 06:26:38;;;;;;;;;;;17.60;99.90;;;;;;5073826;28;19915;-75
2022/07/06 06:29:04;;;;;;;;;;;17.00;99.90;;;;;;5082508;28;20018;-75
2022/07/06 06:31:29;;;;;;;;;;;17.10;99.90;;;;;;5078917;28;19982;-75
2022/07/06 06:33:55;;;;;;;;;;;17.90;99.90;;;;;;5072912;28;19916;-75
2022/07/06 06:36:20;;;;;;;;;;;18.40;98.00;;;;;;5073276;28;19908;-76
2022/07/06 06:38:46;;;;;;;;;;;18.00;97.40;;;;;;5073047;28;19969;-75
2022/07/06 06:41:11;;;;;;;;;;;18.50;98.60;;;;;;5073225;28;19945;-78
2022/07/06 06:43:37;;;;;;;;;;;18.50;97.90;;;;;;5071983;28;19908;-75
2022/07/06 06:46:03;;;;;;;;;;;18.90;97.20;;;;;;5072776;28;19913;-75
2022/07/06 06:48:31;;;;;;;;;;;19.10;96.80;;;;;;5072886;28;20444;-75
2022/07/06 06:50:56;;;;;;;;;;;18.90;96.90;;;;;;5072692;28;19908;-75
2022/07/06 06:53:22;;;;;;;;;;;19.00;96.40;;;;;;5071269;28;19953;-77
2022/07/06 06:55:47;;;;;;;;;;;19.30;96.10;;;;;;5072511;28;20358;-78
2022/07/06 06:58:13;;;;;;;;;;;19.80;95.90;;;;;;5066642;28;19962;-75
2022/07/06 07:00:38;;;;;;;;;;;19.90;95.60;;;;;;5072264;28;19909;-75
2022/07/06 07:03:04;;;;;;;;;;;19.90;95.50;;;;;;5071645;28;19909;-76
2022/07/06 07:05:29;;;;;;;;;;;19.50;94.90;;;;;;5071219;28;20664;-75
2022/07/06 07:07:58;;;;;;;;;;;20.20;93.50;;;;;;5072009;28;19915;-75
2022/07/06 07:10:24;;;;;;;;;;;21.40;92.90;;;;;;5072386;28;19974;-79
2022/07/06 07:12:50;;;;;;;;;;;21.60;92.20;;;;;;5071896;28;19914;-78
2022/07/06 07:15:15;;;;;;;;;;;21.50;89.80;;;;;;5071226;28;19912;-75
2022/07/06 07:17:41;;;;;;;;;;;21.50;89.10;;;;;;5069860;28;19947;-74
2022/07/06 07:20:07;;;;;;;;;;;21.20;91.60;;;;;;5069318;28;19915;-74
2022/07/06 07:22:32;;;;;;;;;;;20.60;92.00;;;;;;5069486;28;19909;-74
2022/07/06 07:25:01;;;;;;;;;;;21.70;91.10;;;;;;5068884;28;19944;-76
2022/07/06 07:27:27;;;;;;;;;;;21.90;91.00;;;;;;5069548;28;20281;-73
2022/07/06 07:29:53;;;;;;;;;;;22.10;89.40;;;;;;5067821;28;19912;-76
2022/07/06 07:32:19;;;;;;;;;;;22.80;89.90;;;;;;5074503;28;19908;-75
2022/07/06 07:34:45;;;;;;;;;;;23.20;86.30;;;;;;5070537;28;19909;-73
2022/07/06 07:37:10;;;;;;;;;;;23.10;85.10;;;;;;5072338;28;19913;-75
2022/07/06 07:39:36;;;;;;;;;;;23.20;82.00;;;;;;5070804;28;20281;-73
2022/07/06 07:42:02;;;;;;;;;;;23.00;87.80;;;;;;5072072;28;19909;-73
2022/07/06 07:44:27;;;;;;;;;;;23.60;84.80;;;;;;5071761;28;19916;-76
2022/07/06 07:46:53;;;;;;;;;;;23.40;84.70;;;;;;5072109;28;19915;-77
2022/07/06 07:49:19;;;;;;;;;;;23.60;80.50;;;;;;5072270;28;19918;-75
2022/07/06 07:51:46;;;;;;;;;;;23.90;86.20;;;;;;5071634;28;19908;-75
2022/07/06 07:54:12;;;;;;;;;;;24.40;85.30;;;;;;5075982;28;20376;-74
2022/07/06 07:56:40;;;;;;;;;;;24.70;84.30;;;;;;5073548;28;19908;-75
2022/07/06 07:59:06;;;;;;;;;;;24.70;80.50;;;;;;5072010;28;20354;-75
2022/07/06 08:01:32;;;;;;;;;;;23.80;84.30;;;;;;5071270;28;20270;-76
2022/07/06 08:03:57;;;;;;;;;;;24.10;80.80;;;;;;5070240;28;19939;-75
2022/07/06 08:06:23;;;;;;;;;;;24.20;78.50;;;;;;5071963;28;19919;-77
2022/07/06 08:08:49;;;;;;;;;;;24.10;80.90;;;;;;5071700;28;19909;-75
2022/07/06 08:11:14;;;;;;;;;;;25.00;82.30;;;;;;5071724;28;19916;-75
2022/07/06 08:13:39;;;;;;;;;;;24.70;77.70;;;;;;5069584;28;19989;-75
2022/07/06 08:16:05;;;;;;;;;;;24.90;76.30;;;;;;5071676;28;19912;-75
2022/07/06 08:18:31;;;;;;;;;;;24.60;73.10;;;;;;5071753;28;19995;-75
2022/07/06 08:20:56;;;;;;;;;;;24.80;79.40;;;;;;5071853;28;19909;-75
2022/07/06 08:23:22;;;;;;;;;;;25.10;73.70;;;;;;5069393;28;19920;-75
2022/07/06 08:25:48;;;;;;;;;;;24.90;74.90;;;;;;5071534;28;19938;-76
2022/07/06 08:28:13;;;;;;;;;;;24.10;76.20;;;;;;5068094;28;19951;-75
2022/07/06 08:30:39;;;;;;;;;;;24.30;77.60;;;;;;5077991;28;19936;-75
2022/07/06 08:33:04;;;;;;;;;;;24.70;73.80;;;;;;5073360;28;19912;-79
2022/07/06 08:35:30;;;;;;;;;;;25.10;74.70;;;;;;5071767;28;20362;-75
2022/07/06 08:37:56;;;;;;;;;;;25.80;76.90;;;;;;5069836;28;20000;-77
2022/07/06 08:40:22;;;;;;;;;;;27.10;76.50;;;;;;5071733;28;20349;-77
2022/07/06 08:42:50;;;;;;;;;;;26.70;68.90;;;;;;5069767;28;19916;-77
2022/07/06 08:45:16;;;;;;;;;;;27.50;70.80;;;;;;5071128;28;19913;-76
2022/07/06 08:47:41;;;;;;;;;;;27.00;70.10;;;;;;5071417;28;19961;-75
2022/07/06 08:50:08;;;;;;;;;;;26.70;72.30;;;;;;5071599;28;19995;-75
2022/07/06 08:52:33;;;;;;;;;;;26.30;76.80;;;;;;5071125;28;19920;-76
2022/07/06 08:55:00;;;;;;;;;;;27.20;73.70;;;;;;5070816;28;19908;-75
2022/07/06 08:57:26;;;;;;;;;;;27.00;73.60;;;;;;5071016;28;19912;-75
2022/07/06 08:59:51;;;;;;;;;;;26.70;69.00;;;;;;5075191;28;20357;-76
2022/07/06 09:02:17;;;;;;;;;;;26.10;72.30;;;;;;5079180;28;19961;-75
2022/07/06 09:04:43;;;;;;;;;;;24.50;70.60;;;;;;5070931;28;19935;-76
2022/07/06 09:07:08;;;;;;;;;;;24.40;76.90;;;;;;5071194;28;20349;-75
2022/07/06 09:09:35;;;;;;;;;;;24.60;72.80;;;;;;5071206;28;20273;-74
2022/07/06 09:12:01;;;;;;;;;;;23.20;77.00;;;;;;5069728;28;19908;-76
2022/07/06 09:14:27;;;;;;;;;;;22.30;76.90;;;;;;5070885;28;19908;-74
2022/07/06 09:17:03;;;;;;;;;;;23.40;82.40;;;;;;5070648;28;20288;-74
2022/07/06 09:19:30;;;;;;;;;;;25.40;75.40;;;;;;5070980;28;19962;-74
2022/07/06 09:21:55;;;;;;;;;;;25.90;69.80;;;;;;5070759;28;19915;-75
2022/07/06 09:24:21;;;;;;;;;;;26.00;73.60;;;;;;5070334;28;19920;-74
2022/07/06 09:26:47;;;;;;;;;;;26.40;73.40;;;;;;5073985;28;19909;-74
2022/07/06 09:29:13;;;;;;;;;;;27.20;69.90;;;;;;5069520;28;19995;-75
2022/07/06 09:31:39;;;;;;;;;;;27.90;70.30;;;;;;5074425;28;19908;-75
2022/07/06 09:34:06;;;;;;;;;;;28.30;71.80;;;;;;5074519;28;20093;-75
2022/07/06 09:36:50;;;;;;;;;;;28.60;64.90;;;;;;5074703;28;19937;-75
2022/07/06 09:39:15;;;;;;;;;;;26.80;70.80;;;;;;5074544;28;19909;-76
2022/07/06 09:41:41;;;;;;;;;;;26.00;72.70;;;;;;5074200;28;20342;-74
2022/07/06 09:44:06;;;;;;;;;;;25.40;73.20;;;;;;5073879;28;19971;-75
2022/07/06 09:46:42;;;;;;;;;;;27.30;71.50;;;;;;5074394;28;19919;-75
2022/07/06 09:49:08;;;;;;;;;;;27.10;65.20;;;;;;5074540;28;20372;-75
2022/07/06 09:51:37;;;;;;;;;;;27.00;69.10;;;;;;5074139;28;19912;-74
2022/07/06 09:54:07;;;;;;;;;;;24.70;75.10;;;;;;5073610;28;20357;-75
2022/07/06 09:56:37;;;;;;;;;;;24.80;73.30;;;;;;5074386;28;20396;-74
2022/07/06 09:59:12;;;;;;;;;;;25.40;74.30;;;;;;5079760;28;19908;-75
2022/07/06 10:01:38;;;;;;;;;;;25.30;71.90;;;;;;5075261;28;19959;-77
2022/07/06 10:04:07;;;;;;;;;;;25.60;76.60;;;;;;5072256;28;20297;-77
2022/07/06 10:06:33;;;;;;;;;;;26.60;68.10;;;;;;5073980;28;19917;-74
2022/07/06 10:08:59;;;;;;;;;;;27.30;71.10;;;;;;5073912;28;19908;-75
2022/07/06 10:11:25;;;;;;;;;;;27.10;71.90;;;;;;5073834;28;19909;-75
2022/07/06 10:13:54;;;;;;;;;;;27.80;68.20;;;;;;5073593;28;20327;-75
2022/07/06 10:16:20;;;;;;;;;;;26.70;66.60;;;;;;5073937;28;19909;-75
2022/07/06 10:18:47;;;;;;;;;;;26.70;70.70;;;;;;5074016;28;19908;-74
2022/07/06 10:21:12;;;;;;;;;;;26.20;68.20;;;;;;5073586;28;19954;-79
2022/07/06 10:23:38;;;;;;;;;;;25.90;70.20;;;;;;5069648;28;19924;-75
2022/07/06 10:26:04;;;;;;;;;;;25.50;70.90;;;;;;5073752;28;20415;-75
2022/07/06 10:28:31;;;;;;;;;;;25.20;71.50;;;;;;5070565;28;21284;-76
2022/07/06 10:30:57;;;;;;;;;;;26.30;74.00;;;;;;5079885;28;19916;-78
2022/07/06 10:33:23;;;;;;;;;;;26.90;69.60;;;;;;5072785;28;19908;-75
2022/07/06 10:35:49;;;;;;;;;;;25.60;71.30;;;;;;5073356;28;19912;-76
2022/07/06 10:38:14;;;;;;;;;;;26.00;70.90;;;;;;5072924;28;19916;-79
2022/07/06 10:43:32;;;;;;;;;;;25.50;76.50;;;;;;5073151;28;20392;-78
2022/07/06 10:45:58;;;;;;;;;;;27.70;70.80;;;;;;5071940;28;19919;-76
2022/07/06 10:48:23;;;;;;;;;;;28.60;63.10;;;;;;5073260;28;20289;-76
2022/07/06 10:50:50;;;;;;;;;;;27.30;68.10;;;;;;5073556;28;19916;-75
2022/07/06 10:53:17;;;;;;;;;;;27.40;67.40;;;;;;5072177;28;19913;-75
2022/07/06 10:55:50;;;;;;;;;;;25.80;70.90;;;;;;5073206;28;19908;-75
2022/07/06 10:58:34;;;;;;;;;;;25.50;69.20;;;;;;5076520;28;19908;-76
2022/07/06 11:01:00;;;;;;;;;;;26.10;71.50;;;;;;5072714;28;19956;-75
2022/07/06 11:03:39;;;;;;;;;;;25.70;70.60;;;;;;5072030;28;20333;-76
2022/07/06 11:06:09;;;;;;;;;;;26.80;69.20;;;;;;5072969;28;19958;-76
2022/07/06 11:08:41;;;;;;;;;;;26.50;69.90;;;;;;5072745;28;20004;-76
2022/07/06 11:11:16;;;;;;;;;;;26.70;75.50;;;;;;5072750;28;19992;-75
2022/07/06 11:13:51;;;;;;;;;;;26.00;73.80;;;;;;5072260;28;19924;-76
2022/07/06 11:16:16;;;;;;;;;;;27.50;70.10;;;;;;5072728;28;19970;-75
2022/07/06 11:18:46;;;;;;;;;;;27.60;69.70;;;;;;5071369;28;19912;-75
2022/07/06 11:21:18;;;;;;;;;;;25.70;72.80;;;;;;5059319;28;19917;-75
2022/07/06 11:23:48;;;;;;;;;;;25.20;73.50;;;;;;5066014;28;19917;-76
2022/07/06 11:26:14;;;;;;;;;;;26.50;71.60;;;;;;5072479;28;19912;-76
2022/07/06 11:28:41;;;;;;;;;;;27.30;69.00;;;;;;5072567;28;19908;-77
2022/07/06 11:31:06;;;;;;;;;;;26.80;70.80;;;;;;5072355;28;19909;-75
2022/07/06 11:33:32;;;;;;;;;;;27.10;69.50;;;;;;5071750;28;19912;-76
2022/07/06 11:36:11;;;;;;;;;;;26.10;74.60;;;;;;5072458;28;19916;-75
2022/07/06 11:38:36;;;;;;;;;;;25.70;71.50;;;;;;5057556;28;19908;-76
2022/07/06 11:41:02;;;;;;;;;;;27.10;71.00;;;;;;5072358;28;19909;-75
2022/07/06 11:43:27;;;;;;;;;;;26.00;69.20;;;;;;5071511;28;19931;-75
2022/07/06 11:45:53;;;;;;;;;;;24.80;74.80;;;;;;5071913;28;19919;-75
2022/07/06 11:48:18;;;;;;;;;;;23.50;77.00;;;;;;5071302;28;20097;-78
2022/07/06 11:50:56;;;;;;;;;;;23.70;79.30;;;;;;5072018;28;19955;-75
2022/07/06 11:53:21;;;;;;;;;;;23.20;77.20;;;;;;5071387;28;20289;-76
2022/07/06 11:55:47;;;;;;;;;;;23.30;78.70;;;;;;5071916;28;19915;-76
2022/07/06 11:58:12;;;;;;;;;;;22.60;80.00;;;;;;5071900;28;19917;-78
2022/07/06 12:00:38;;;;;;;;;;;23.40;79.10;;;;;;5071998;28;20362;-73
2022/07/06 12:03:03;;;;;;;;;;;24.50;77.30;;;;;;5071264;28;19908;-75
2022/07/06 12:05:30;;;;;;;;;;;24.80;78.20;;;;;;5071340;28;19920;-75
2022/07/06 12:08:05;;;;;;;;;;;24.20;74.70;;;;;;5071865;28;20396;-75
2022/07/06 12:10:32;;;;;;;;;;;23.50;78.80;;;;;;5071738;28;20393;-75
2022/07/06 12:13:03;;;;;;;;;;;23.60;77.50;;;;;;5071360;28;19916;-75
2022/07/06 12:15:29;;;;;;;;;;;23.30;80.90;;;;;;5071837;28;20319;-75
2022/07/06 12:17:55;;;;;;;;;;;23.60;78.90;;;;;;5071656;28;19909;-75
2022/07/06 12:20:20;;;;;;;;;;;24.90;77.30;;;;;;5071772;28;19962;-75
2022/07/06 12:22:46;;;;;;;;;;;25.60;74.70;;;;;;5071199;28;19912;-75
2022/07/06 12:25:11;;;;;;;;;;;25.60;76.70;;;;;;5070760;28;19920;-76
2022/07/06 12:27:37;;;;;;;;;;;24.40;74.90;;;;;;5070399;28;19909;-74
2022/07/06 12:30:09;;;;;;;;;;;23.40;81.70;;;;;;5076360;28;20353;-75
2022/07/06 12:32:36;;;;;;;;;;;24.40;77.60;;;;;;5071326;28;19999;-75
2022/07/06 12:35:05;;;;;;;;;;;27.00;76.00;;;;;;5071280;28;20050;-77
2022/07/06 12:37:31;;;;;;;;;;;28.20;71.50;;;;;;5071616;28;20361;-74
2022/07/06 12:39:56;;;;;;;;;;;26.10;72.00;;;;;;5070499;28;19908;-74
2022/07/06 12:42:22;;;;;;;;;;;26.30;70.70;;;;;;5071741;28;19908;-76
2022/07/06 12:44:49;;;;;;;;;;;27.40;67.40;;;;;;5071099;28;19999;-75
2022/07/06 12:47:24;;;;;;;;;;;25.90;71.80;;;;;;5071411;28;20356;-74
2022/07/06 12:50:07;;;;;;;;;;;25.00;70.70;;;;;;5070301;28;20011;-74
2022/07/06 12:52:33;;;;;;;;;;;24.30;75.60;;;;;;5070059;28;20285;-75
2022/07/06 12:54:59;;;;;;;;;;;24.40;74.60;;;;;;5070621;28;19912;-75
2022/07/06 12:57:26;;;;;;;;;;;25.60;74.40;;;;;;5071210;28;19909;-75
2022/07/06 12:59:56;;;;;;;;;;;24.00;74.40;;;;;;5075689;28;19909;-74
2022/07/06 13:02:21;;;;;;;;;;;23.30;78.50;;;;;;5073766;28;19913;-75
2022/07/06 13:05:01;;;;;;;;;;;24.20;78.70;;;;;;5073529;28;19962;-75
2022/07/06 13:07:27;;;;;;;;;;;24.30;75.50;;;;;;5075392;28;19915;-75
2022/07/06 13:09:53;;;;;;;;;;;25.50;72.50;;;;;;5075047;28;19991;-74
2022/07/06 13:12:19;;;;;;;;;;;28.10;68.10;;;;;;5074940;28;20322;-74
2022/07/06 13:14:44;;;;;;;;;;;27.40;67.20;;;;;;5074764;28;20301;-75
2022/07/06 13:17:10;;;;;;;;;;;26.20;67.40;;;;;;5075066;28;19908;-74
2022/07/06 13:19:35;;;;;;;;;;;28.00;64.60;;;;;;5075307;28;19908;-75
2022/07/06 13:22:01;;;;;;;;;;;28.30;62.50;;;;;;5074724;28;19912;-74
2022/07/06 13:24:28;;;;;;;;;;;25.60;69.40;;;;;;5072942;28;19917;-76
2022/07/06 13:26:54;;;;;;;;;;;26.70;71.60;;;;;;5075015;28;19913;-75
2022/07/06 13:29:19;;;;;;;;;;;26.50;68.70;;;;;;5069770;28;19956;-75
2022/07/06 13:31:45;;;;;;;;;;;26.00;71.60;;;;;;5074161;28;19916;-75
2022/07/06 13:34:10;;;;;;;;;;;25.90;67.20;;;;;;5074087;28;20369;-75
2022/07/06 13:36:36;;;;;;;;;;;24.30;73.30;;;;;;5074800;28;20378;-75
2022/07/06 13:39:02;;;;;;;;;;;27.30;70.30;;;;;;5065948;28;20369;-75
2022/07/06 13:41:28;;;;;;;;;;;29.90;60.60;;;;;;5074318;28;20305;-75
2022/07/06 13:43:53;;;;;;;;;;;28.20;61.40;;;;;;5074272;28;20007;-75
2022/07/06 13:46:20;;;;;;;;;;;27.30;63.90;;;;;;5074494;28;19916;-77
2022/07/06 13:48:46;;;;;;;;;;;25.30;69.60;;;;;;5074789;28;20032;-75
2022/07/06 13:51:12;;;;;;;;;;;26.90;66.10;;;;;;5074674;28;19912;-75
2022/07/06 13:53:38;;;;;;;;;;;28.60;61.60;;;;;;5072529;28;20058;-75
2022/07/06 13:56:03;;;;;;;;;;;28.90;61.80;;;;;;5072674;28;19944;-77
2022/07/06 13:58:29;;;;;;;;;;;29.00;61.50;;;;;;5072995;28;20358;-75
2022/07/06 14:00:55;;;;;;;;;;;28.70;61.20;;;;;;5073880;28;19908;-75
2022/07/06 14:03:21;;;;;;;;;;;30.50;63.30;;;;;;5073281;28;19916;-75
2022/07/06 14:05:47;;;;;;;;;;;30.40;58.90;;;;;;5067623;28;19966;-76
2022/07/06 14:08:12;;;;;;;;;;;30.90;59.20;;;;;;5074152;28;19912;-75
2022/07/06 14:10:38;;;;;;;;;;;30.10;60.20;;;;;;5073888;28;20302;-77
2022/07/06 14:13:03;;;;;;;;;;;29.20;62.00;;;;;;5073015;28;20037;-74
2022/07/06 14:15:29;;;;;;;;;;;29.00;61.90;;;;;;5073371;28;19948;-75
2022/07/06 14:17:54;;;;;;;;;;;28.70;60.30;;;;;;5073987;28;19909;-75
2022/07/06 14:20:20;;;;;;;;;;;27.50;60.70;;;;;;5072795;28;19909;-74